sensor_id;sensor_type;location;lat;lon;timestamp;pressure;altitude;pressure_sealevel;temperature;humidity
41254;BME280;26987;59.928;30.306;2023-03-20T00:00:52;101269.94;;;5.00;74.76
41254;BME280;26987;59.928;30.306;2023-03-20T00:03:20;101263.25;;;4.96;74.77
41254;BME280;26987;59.928;30.306;2023-03-20T00:05:48;101254.31;;;4.97;74.71
41254;BME280;26987;59.928;30.306;2023-03-20T00:08:17;101254.31;;;4.97;75.19
41254;BME280;26987;59.928;30.306;2023-03-20T00:10:45;101245.50;;;4.96;74.85
41254;BME280;26987;59.928;30.306;2023-03-20T00:13:20;101252.31;;;4.99;75.32
41254;BME280;26987;59.928;30.306;2023-03-20T00:15:52;101249.97;;;4.96;74.47
41254;BME280;26987;59.928;30.306;2023-03-20T00:18:22;101231.63;;;4.84;75.00
41254;BME280;26987;59.928;30.306;2023-03-20T00:20:50;101231.78;;;4.83;75.43
41254;BME280;26987;59.928;30.306;2023-03-20T00:23:18;101245.13;;;4.91;75.17
41254;BME280;26987;59.928;30.306;2023-03-20T00:25:47;101236.09;;;4.84;74.93
41254;BME280;26987;59.928;30.306;2023-03-20T00:28:34;101255.50;;;5.02;75.63
41254;BME280;26987;59.928;30.306;2023-03-20T00:31:14;101247.84;;;4.99;75.53
41254;BME280;26987;59.928;30.306;2023-03-20T00:33:45;101243.16;;;4.93;75.34
41254;BME280;26987;59.928;30.306;2023-03-20T00:36:13;101240.16;;;4.96;75.53
41254;BME280;26987;59.928;30.306;2023-03-20T00:38:41;101241.81;;;4.97;76.28
41254;BME280;26987;59.928;30.306;2023-03-20T00:41:20;101237.72;;;5.03;75.96
41254;BME280;26987;59.928;30.306;2023-03-20T00:43:50;101242.38;;;5.01;75.80
41254;BME280;26987;59.928;30.306;2023-03-20T00:46:20;101242.22;;;5.02;76.02
41254;BME280;26987;59.928;30.306;2023-03-20T00:48:48;101220.41;;;4.99;75.24
41254;BME280;26987;59.928;30.306;2023-03-20T00:51:17;101223.75;;;5.01;75.35
41254;BME280;26987;59.928;30.306;2023-03-20T00:53:45;101222.91;;;5.00;75.58
41254;BME280;26987;59.928;30.306;2023-03-20T00:56:29;101188.97;;;4.86;75.64
41254;BME280;26987;59.928;30.306;2023-03-20T00:58:58;101219.75;;;4.97;76.08
41254;BME280;26987;59.928;30.306;2023-03-20T01:01:29;101223.06;;;4.99;75.46
41254;BME280;26987;59.928;30.306;2023-03-20T01:03:58;101216.94;;;4.98;76.11
41254;BME280;26987;59.928;30.306;2023-03-20T01:06:27;101213.06;;;4.92;75.59
41254;BME280;26987;59.928;30.306;2023-03-20T01:08:56;101214.59;;;4.95;75.59
41254;BME280;26987;59.928;30.306;2023-03-20T01:11:25;101219.91;;;4.95;75.87
41254;BME280;26987;59.928;30.306;2023-03-20T01:13:53;101213.75;;;4.95;75.32
41254;BME280;26987;59.928;30.306;2023-03-20T01:16:22;101197.94;;;4.85;76.04
41254;BME280;26987;59.928;30.306;2023-03-20T01:18:52;101198.28;;;4.90;76.21
41254;BME280;26987;59.928;30.306;2023-03-20T01:21:21;101207.75;;;4.92;75.84
41254;BME280;26987;59.928;30.306;2023-03-20T01:23:49;101209.75;;;4.90;76.30
41254;BME280;26987;59.928;30.306;2023-03-20T01:26:21;101203.75;;;4.88;76.10
41254;BME280;26987;59.928;30.306;2023-03-20T01:28:49;101214.22;;;4.90;76.68
41254;BME280;26987;59.928;30.306;2023-03-20T01:31:19;101211.41;;;4.91;76.42
41254;BME280;26987;59.928;30.306;2023-03-20T01:33:46;101210.06;;;4.87;76.43
41254;BME280;26987;59.928;30.306;2023-03-20T01:36:19;101204.28;;;4.92;76.99
41254;BME280;26987;59.928;30.306;2023-03-20T01:38:52;101203.13;;;4.95;77.23
41254;BME280;26987;59.928;30.306;2023-03-20T01:41:22;101195.16;;;4.95;77.18
41254;BME280;26987;59.928;30.306;2023-03-20T01:43:51;101201.16;;;4.97;76.75
41254;BME280;26987;59.928;30.306;2023-03-20T01:46:22;101201.97;;;4.97;77.49
41254;BME280;26987;59.928;30.306;2023-03-20T01:49:00;101191.00;;;5.00;77.40
41254;BME280;26987;59.928;30.306;2023-03-20T01:51:35;101183.19;;;4.99;76.86
41254;BME280;26987;59.928;30.306;2023-03-20T01:54:13;101169.25;;;4.97;77.28
41254;BME280;26987;59.928;30.306;2023-03-20T01:56:59;101175.75;;;5.02;76.68
41254;BME280;26987;59.928;30.306;2023-03-20T01:59:32;101177.88;;;4.99;77.46
41254;BME280;26987;59.928;30.306;2023-03-20T02:02:03;101174.88;;;4.94;76.72
41254;BME280;26987;59.928;30.306;2023-03-20T02:04:34;101175.84;;;4.92;77.36
41254;BME280;26987;59.928;30.306;2023-03-20T02:07:10;101175.84;;;4.92;78.02
41254;BME280;26987;59.928;30.306;2023-03-20T02:09:46;101149.22;;;4.76;77.50
41254;BME280;26987;59.928;30.306;2023-03-20T02:12:20;101156.84;;;4.79;77.95
41254;BME280;26987;59.928;30.306;2023-03-20T02:14:49;101163.22;;;4.86;77.63
41254;BME280;26987;59.928;30.306;2023-03-20T02:17:44;101158.06;;;4.85;78.39
41254;BME280;26987;59.928;30.306;2023-03-20T02:20:24;101149.09;;;4.86;78.49
41254;BME280;26987;59.928;30.306;2023-03-20T02:23:37;101154.28;;;4.96;78.13
41254;BME280;26987;59.928;30.306;2023-03-20T02:26:36;101153.31;;;4.97;78.68
41254;BME280;26987;59.928;30.306;2023-03-20T02:29:53;101136.34;;;4.98;78.22
41254;BME280;26987;59.928;30.306;2023-03-20T02:41:59;101141.66;;;4.89;78.23
41254;BME280;26987;59.928;30.306;2023-03-20T02:44:32;101123.31;;;4.78;78.84
41254;BME280;26987;59.928;30.306;2023-03-20T02:47:07;101096.25;;;4.48;79.06
41254;BME280;26987;59.928;30.306;2023-03-20T02:49:54;101132.28;;;4.77;79.67
41254;BME280;26987;59.928;30.306;2023-03-20T02:52:32;101119.75;;;4.61;79.61
41254;BME280;26987;59.928;30.306;2023-03-20T02:55:13;101120.84;;;4.50;80.61
41254;BME280;26987;59.928;30.306;2023-03-20T02:57:49;101126.47;;;4.47;81.10
41254;BME280;26987;59.928;30.306;2023-03-20T03:00:25;101130.44;;;4.43;81.43
41254;BME280;26987;59.928;30.306;2023-03-20T03:02:59;101093.06;;;4.09;81.53
41254;BME280;26987;59.928;30.306;2023-03-20T03:05:36;101129.66;;;4.24;81.95
41254;BME280;26987;59.928;30.306;2023-03-20T03:08:07;101126.72;;;4.09;82.57
41254;BME280;26987;59.928;30.306;2023-03-20T03:10:42;101124.47;;;3.96;83.15
41254;BME280;26987;59.928;30.306;2023-03-20T03:13:14;101122.13;;;3.74;84.07
41254;BME280;26987;59.928;30.306;2023-03-20T03:15:46;101122.88;;;3.66;84.05
41254;BME280;26987;59.928;30.306;2023-03-20T03:18:18;101130.06;;;3.56;85.08
41254;BME280;26987;59.928;30.306;2023-03-20T03:20:50;101130.31;;;3.45;86.01
41254;BME280;26987;59.928;30.306;2023-03-20T03:23:24;101143.16;;;3.39;86.73
41254;BME280;26987;59.928;30.306;2023-03-20T03:25:56;101098.03;;;3.03;87.12
41254;BME280;26987;59.928;30.306;2023-03-20T03:28:30;101130.03;;;3.20;87.96
41254;BME280;26987;59.928;30.306;2023-03-20T03:31:04;101123.94;;;3.09;87.82
41254;BME280;26987;59.928;30.306;2023-03-20T03:33:34;101121.34;;;2.99;88.59
41254;BME280;26987;59.928;30.306;2023-03-20T03:36:10;101138.19;;;3.08;88.81
41254;BME280;26987;59.928;30.306;2023-03-20T03:38:45;101124.28;;;2.96;89.57
41254;BME280;26987;59.928;30.306;2023-03-20T03:41:23;101135.41;;;3.00;89.84
41254;BME280;26987;59.928;30.306;2023-03-20T03:44:00;101088.72;;;2.71;90.37
41254;BME280;26987;59.928;30.306;2023-03-20T03:46:38;101140.72;;;3.00;91.12
41254;BME280;26987;59.928;30.306;2023-03-20T03:49:12;101144.06;;;3.02;91.48
41254;BME280;26987;59.928;30.306;2023-03-20T03:51:44;101134.06;;;2.96;91.75
41254;BME280;26987;59.928;30.306;2023-03-20T03:54:18;101129.75;;;2.95;91.65
41254;BME280;26987;59.928;30.306;2023-03-20T03:57:09;101122.47;;;2.97;91.70
41254;BME280;26987;59.928;30.306;2023-03-20T03:59:41;101083.88;;;2.66;92.36
41254;BME280;26987;59.928;30.306;2023-03-20T04:02:11;101113.88;;;2.85;93.06
41254;BME280;26987;59.928;30.306;2023-03-20T04:04:44;101120.88;;;2.86;93.09
41254;BME280;26987;59.928;30.306;2023-03-20T04:07:13;101120.59;;;2.79;93.34
41254;BME280;26987;59.928;30.306;2023-03-20T04:09:40;101120.22;;;2.74;93.79
41254;BME280;26987;59.928;30.306;2023-03-20T04:12:32;101109.72;;;2.82;94.35
41254;BME280;26987;59.928;30.306;2023-03-20T04:15:02;101105.44;;;2.71;93.48
41254;BME280;26987;59.928;30.306;2023-03-20T04:17:32;101087.72;;;2.72;94.29
41254;BME280;26987;59.928;30.306;2023-03-20T04:20:02;101100.00;;;2.73;94.23
41254;BME280;26987;59.928;30.306;2023-03-20T04:22:29;101092.22;;;2.99;94.04
41254;BME280;26987;59.928;30.306;2023-03-20T04:25:07;101089.28;;;3.39;91.89
41254;BME280;26987;59.928;30.306;2023-03-20T04:27:37;101076.28;;;3.82;89.61
41254;BME280;26987;59.928;30.306;2023-03-20T04:30:12;101059.22;;;4.11;87.00
41254;BME280;26987;59.928;30.306;2023-03-20T04:33:15;101081.44;;;4.72;84.67
41254;BME280;26987;59.928;30.306;2023-03-20T04:36:03;101083.22;;;5.06;81.78
41254;BME280;26987;59.928;30.306;2023-03-20T04:38:32;101085.97;;;5.48;79.68
41254;BME280;26987;59.928;30.306;2023-03-20T04:41:01;101073.84;;;5.70;78.66
41254;BME280;26987;59.928;30.306;2023-03-20T04:43:31;101082.00;;;6.02;77.24
41254;BME280;26987;59.928;30.306;2023-03-20T04:45:59;101091.78;;;6.35;75.14
41254;BME280;26987;59.928;30.306;2023-03-20T04:48:27;101096.19;;;6.67;73.18
41254;BME280;26987;59.928;30.306;2023-03-20T04:50:55;101082.88;;;6.99;71.55
41254;BME280;26987;59.928;30.306;2023-03-20T04:53:40;101089.19;;;7.62;68.58
41254;BME280;26987;59.928;30.306;2023-03-20T04:56:08;101089.72;;;7.95;66.69
41254;BME280;26987;59.928;30.306;2023-03-20T04:58:38;101077.16;;;8.35;65.08
41254;BME280;26987;59.928;30.306;2023-03-20T05:01:06;101083.72;;;8.92;62.32
41254;BME280;26987;59.928;30.306;2023-03-20T05:03:34;101079.78;;;9.47;59.47
41254;BME280;26987;59.928;30.306;2023-03-20T05:06:03;101090.13;;;10.01;57.37
41254;BME280;26987;59.928;30.306;2023-03-20T05:08:32;101079.84;;;10.40;55.15
41254;BME280;26987;59.928;30.306;2023-03-20T05:11:00;101080.06;;;10.74;53.91
41254;BME280;26987;59.928;30.306;2023-03-20T05:13:50;101067.66;;;11.21;52.39
41254;BME280;26987;59.928;30.306;2023-03-20T05:16:50;101082.59;;;11.71;50.38
41254;BME280;26987;59.928;30.306;2023-03-20T05:19:18;101075.75;;;12.03;48.74
41254;BME280;26987;59.928;30.306;2023-03-20T05:22:10;101077.97;;;12.46;47.23
41254;BME280;26987;59.928;30.306;2023-03-20T05:24:56;101073.94;;;12.83;46.08
41254;BME280;26987;59.928;30.306;2023-03-20T05:27:24;101079.25;;;12.96;45.67
41254;BME280;26987;59.928;30.306;2023-03-20T05:30:14;101049.28;;;13.18;45.32
41254;BME280;26987;59.928;30.306;2023-03-20T05:32:54;101070.72;;;13.39;44.54
41254;BME280;26987;59.928;30.306;2023-03-20T05:35:28;101043.78;;;13.39;44.07
41254;BME280;26987;59.928;30.306;2023-03-20T05:38:03;101068.53;;;13.86;43.38
41254;BME280;26987;59.928;30.306;2023-03-20T05:40:43;101071.81;;;14.14;42.61
41254;BME280;26987;59.928;30.306;2023-03-20T05:43:31;101071.28;;;14.24;41.89
41254;BME280;26987;59.928;30.306;2023-03-20T05:46:29;101065.97;;;14.36;42.04
41254;BME280;26987;59.928;30.306;2023-03-20T05:49:25;101066.41;;;14.33;41.73
41254;BME280;26987;59.928;30.306;2023-03-20T05:51:53;101066.28;;;14.28;41.67
41254;BME280;26987;59.928;30.306;2023-03-20T05:54:38;101067.72;;;16.32;40.80
41254;BME280;26987;59.928;30.306;2023-03-20T05:57:34;101063.94;;;14.87;40.44
41254;BME280;26987;59.928;30.306;2023-03-20T06:00:22;101060.94;;;14.58;41.02
41254;BME280;26987;59.928;30.306;2023-03-20T06:03:11;101060.88;;;14.65;41.09
41254;BME280;26987;59.928;30.306;2023-03-20T06:05:55;101061.91;;;14.27;41.17
41254;BME280;26987;59.928;30.306;2023-03-20T06:08:23;101060.03;;;13.83;42.17
41254;BME280;26987;59.928;30.306;2023-03-20T06:10:51;101052.84;;;13.44;43.07
41254;BME280;26987;59.928;30.306;2023-03-20T06:13:19;101052.56;;;13.59;42.96
41254;BME280;26987;59.928;30.306;2023-03-20T06:15:47;101040.91;;;13.91;42.06
41254;BME280;26987;59.928;30.306;2023-03-20T06:18:18;101045.53;;;13.26;44.02
41254;BME280;26987;59.928;30.306;2023-03-20T06:20:51;101025.53;;;12.10;46.79
41254;BME280;26987;59.928;30.306;2023-03-20T06:23:19;101031.31;;;11.19;49.19
41254;BME280;26987;59.928;30.306;2023-03-20T06:25:47;101042.97;;;10.84;50.87
41254;BME280;26987;59.928;30.306;2023-03-20T06:28:16;101028.31;;;10.87;51.21
41254;BME280;26987;59.928;30.306;2023-03-20T06:30:45;101032.78;;;11.48;49.57
41254;BME280;26987;59.928;30.306;2023-03-20T06:33:19;101023.84;;;12.02;48.33
41254;BME280;26987;59.928;30.306;2023-03-20T06:35:58;101022.03;;;11.62;48.22
41254;BME280;26987;59.928;30.306;2023-03-20T06:38:29;101029.00;;;11.09;50.10
41254;BME280;26987;59.928;30.306;2023-03-20T06:40:59;101027.13;;;10.47;52.63
41254;BME280;26987;59.928;30.306;2023-03-20T06:43:27;101016.16;;;10.06;54.00
41254;BME280;26987;59.928;30.306;2023-03-20T06:45:55;101008.34;;;9.76;55.34
41254;BME280;26987;59.928;30.306;2023-03-20T06:48:28;101017.78;;;9.72;56.51
41254;BME280;26987;59.928;30.306;2023-03-20T06:50:56;101008.97;;;9.50;57.21
41254;BME280;26987;59.928;30.306;2023-03-20T06:53:30;101011.69;;;8.91;59.22
41254;BME280;26987;59.928;30.306;2023-03-20T06:56:07;101013.75;;;8.74;60.83
41254;BME280;26987;59.928;30.306;2023-03-20T06:58:39;101005.84;;;8.65;61.32
41254;BME280;26987;59.928;30.306;2023-03-20T07:01:10;100983.19;;;8.46;62.14
41254;BME280;26987;59.928;30.306;2023-03-20T07:03:41;100996.09;;;8.42;62.83
41254;BME280;26987;59.928;30.306;2023-03-20T07:06:09;100943.72;;;7.96;63.46
41254;BME280;26987;59.928;30.306;2023-03-20T07:08:39;100995.72;;;8.15;64.37
41254;BME280;26987;59.928;30.306;2023-03-20T07:11:07;100992.03;;;8.01;64.91
41254;BME280;26987;59.928;30.306;2023-03-20T07:13:36;100997.59;;;8.00;65.45
41254;BME280;26987;59.928;30.306;2023-03-20T07:16:18;100998.41;;;8.00;65.75
41254;BME280;26987;59.928;30.306;2023-03-20T07:18:48;100979.78;;;7.77;66.49
41254;BME280;26987;59.928;30.306;2023-03-20T07:21:18;100998.47;;;7.77;67.12
41254;BME280;26987;59.928;30.306;2023-03-20T07:23:46;100978.94;;;7.61;67.18
41254;BME280;26987;59.928;30.306;2023-03-20T07:26:14;100990.88;;;7.65;67.97
41254;BME280;26987;59.928;30.306;2023-03-20T07:28:42;100992.28;;;7.61;68.15
41254;BME280;26987;59.928;30.306;2023-03-20T07:31:22;100957.16;;;7.34;68.62
41254;BME280;26987;59.928;30.306;2023-03-20T07:33:58;100988.72;;;7.45;69.18
41254;BME280;26987;59.928;30.306;2023-03-20T07:36:26;100994.63;;;7.41;69.52
41254;BME280;26987;59.928;30.306;2023-03-20T07:38:54;100997.28;;;7.41;69.54
41254;BME280;26987;59.928;30.306;2023-03-20T07:41:22;100987.25;;;7.43;69.40
41254;BME280;26987;59.928;30.306;2023-03-20T07:44:01;100989.38;;;7.48;69.05
41254;BME280;26987;59.928;30.306;2023-03-20T07:46:58;100981.03;;;7.51;68.67
41254;BME280;26987;59.928;30.306;2023-03-20T07:49:27;100983.03;;;7.49;68.73
41254;BME280;26987;59.928;30.306;2023-03-20T07:51:55;100976.69;;;7.50;68.67
41254;BME280;26987;59.928;30.306;2023-03-20T07:54:23;100979.38;;;7.50;68.62
41254;BME280;26987;59.928;30.306;2023-03-20T07:56:52;100968.47;;;7.36;68.82
41254;BME280;26987;59.928;30.306;2023-03-20T07:59:19;100973.03;;;7.51;68.97
41254;BME280;26987;59.928;30.306;2023-03-20T08:01:47;100965.50;;;7.54;68.53
41254;BME280;26987;59.928;30.306;2023-03-20T08:04:15;100965.31;;;7.56;68.70
41254;BME280;26987;59.928;30.306;2023-03-20T08:06:47;100953.88;;;7.62;68.44
41254;BME280;26987;59.928;30.306;2023-03-20T08:09:16;100949.13;;;7.57;68.16
41254;BME280;26987;59.928;30.306;2023-03-20T08:11:44;100951.56;;;7.59;68.26
41254;BME280;26987;59.928;30.306;2023-03-20T08:14:12;100916.25;;;7.42;68.48
41254;BME280;26987;59.928;30.306;2023-03-20T08:16:40;100948.53;;;7.62;68.40
41254;BME280;26987;59.928;30.306;2023-03-20T08:19:08;100950.59;;;7.75;67.95
41254;BME280;26987;59.928;30.306;2023-03-20T08:21:36;100945.00;;;7.85;67.51
41254;BME280;26987;59.928;30.306;2023-03-20T08:24:06;100931.94;;;7.90;67.32
41254;BME280;26987;59.928;30.306;2023-03-20T08:26:34;100918.84;;;7.80;66.87
41254;BME280;26987;59.928;30.306;2023-03-20T08:29:02;100942.50;;;7.83;67.13
41254;BME280;26987;59.928;30.306;2023-03-20T08:31:30;100939.84;;;7.83;67.48
41254;BME280;26987;59.928;30.306;2023-03-20T08:33:58;100937.16;;;7.83;67.56
41254;BME280;26987;59.928;30.306;2023-03-20T08:36:26;100929.06;;;7.77;67.63
41254;BME280;26987;59.928;30.306;2023-03-20T08:38:54;100925.47;;;7.69;68.15
41254;BME280;26987;59.928;30.306;2023-03-20T08:41:23;100895.63;;;7.51;68.72
41254;BME280;26987;59.928;30.306;2023-03-20T08:43:51;100909.19;;;7.64;68.50
41254;BME280;26987;59.928;30.306;2023-03-20T08:46:18;100917.84;;;7.66;68.43
41254;BME280;26987;59.928;30.306;2023-03-20T08:48:46;100930.25;;;7.74;68.67
41254;BME280;26987;59.928;30.306;2023-03-20T08:51:14;100927.56;;;7.89;68.12
41254;BME280;26987;59.928;30.306;2023-03-20T08:53:42;100929.44;;;8.04;67.23
41254;BME280;26987;59.928;30.306;2023-03-20T08:56:10;100920.75;;;8.17;66.74
41254;BME280;26987;59.928;30.306;2023-03-20T08:58:39;100926.25;;;8.30;66.59
41254;BME280;26987;59.928;30.306;2023-03-20T09:01:08;100923.31;;;8.40;66.08
41254;BME280;26987;59.928;30.306;2023-03-20T09:03:36;100924.22;;;8.48;65.44
41254;BME280;26987;59.928;30.306;2023-03-20T09:06:05;100918.22;;;8.61;64.78
41254;BME280;26987;59.928;30.306;2023-03-20T09:08:33;100911.84;;;8.62;64.52
41254;BME280;26987;59.928;30.306;2023-03-20T09:11:01;100911.59;;;8.78;64.10
41254;BME280;26987;59.928;30.306;2023-03-20T09:13:30;100910.72;;;8.93;63.22
41254;BME280;26987;59.928;30.306;2023-03-20T09:15:59;100906.44;;;8.99;62.65
41254;BME280;26987;59.928;30.306;2023-03-20T09:18:27;100907.97;;;9.08;61.89
41254;BME280;26987;59.928;30.306;2023-03-20T09:20:55;100894.44;;;9.16;61.16
41254;BME280;26987;59.928;30.306;2023-03-20T09:23:23;100907.16;;;9.36;60.68
41254;BME280;26987;59.928;30.306;2023-03-20T09:25:50;100902.88;;;9.42;60.47
41254;BME280;26987;59.928;30.306;2023-03-20T09:28:18;100896.19;;;9.31;60.50
41254;BME280;26987;59.928;30.306;2023-03-20T09:30:46;100886.13;;;9.33;60.21
41254;BME280;26987;59.928;30.306;2023-03-20T09:33:16;100885.75;;;9.36;60.37
41254;BME280;26987;59.928;30.306;2023-03-20T09:35:44;100883.56;;;9.46;59.77
41254;BME280;26987;59.928;30.306;2023-03-20T09:38:12;100879.25;;;9.52;59.48
41254;BME280;26987;59.928;30.306;2023-03-20T09:40:48;100857.44;;;9.49;59.92
41254;BME280;26987;59.928;30.306;2023-03-20T09:43:26;100871.56;;;9.71;59.31
41254;BME280;26987;59.928;30.306;2023-03-20T09:46:04;100866.84;;;9.80;58.39
41254;BME280;26987;59.928;30.306;2023-03-20T09:48:40;100869.75;;;9.85;58.50
41254;BME280;26987;59.928;30.306;2023-03-20T09:51:17;100858.84;;;9.87;58.45
41254;BME280;26987;59.928;30.306;2023-03-20T09:53:51;100859.97;;;10.06;57.95
41254;BME280;26987;59.928;30.306;2023-03-20T09:56:24;100838.50;;;9.92;57.39
41254;BME280;26987;59.928;30.306;2023-03-20T09:58:54;100854.63;;;10.13;57.46
41254;BME280;26987;59.928;30.306;2023-03-20T10:01:26;100844.91;;;10.05;57.12
41254;BME280;26987;59.928;30.306;2023-03-20T10:03:59;100830.47;;;9.92;57.48
41254;BME280;26987;59.928;30.306;2023-03-20T10:06:28;100846.28;;;9.87;57.70
41254;BME280;26987;59.928;30.306;2023-03-20T10:08:56;100838.38;;;9.65;58.59
41254;BME280;26987;59.928;30.306;2023-03-20T10:11:45;100829.38;;;9.80;59.01
41254;BME280;26987;59.928;30.306;2023-03-20T10:14:23;100831.53;;;9.63;59.10
41254;BME280;26987;59.928;30.306;2023-03-20T10:17:07;100824.28;;;9.56;59.71
41254;BME280;26987;59.928;30.306;2023-03-20T10:19:42;100821.16;;;9.46;60.10
41254;BME280;26987;59.928;30.306;2023-03-20T10:22:18;100808.16;;;9.43;60.64
41254;BME280;26987;59.928;30.306;2023-03-20T10:24:54;100803.06;;;9.48;60.50
41254;BME280;26987;59.928;30.306;2023-03-20T10:27:25;100806.78;;;9.47;60.66
41254;BME280;26987;59.928;30.306;2023-03-20T10:30:01;100806.56;;;9.49;61.10
41254;BME280;26987;59.928;30.306;2023-03-20T10:32:35;100769.56;;;9.24;60.77
41254;BME280;26987;59.928;30.306;2023-03-20T10:35:17;100798.28;;;9.43;61.26
41254;BME280;26987;59.928;30.306;2023-03-20T10:38:00;100783.03;;;9.37;61.20
41254;BME280;26987;59.928;30.306;2023-03-20T10:40:29;100789.56;;;9.28;61.62
41254;BME280;26987;59.928;30.306;2023-03-20T10:43:03;100777.84;;;9.29;61.90
41254;BME280;26987;59.928;30.306;2023-03-20T10:45:39;100735.94;;;9.07;61.79
41254;BME280;26987;59.928;30.306;2023-03-20T10:48:15;100771.94;;;9.40;61.81
41254;BME280;26987;59.928;30.306;2023-03-20T10:50:45;100775.53;;;9.61;60.86
41254;BME280;26987;59.928;30.306;2023-03-20T10:53:22;100772.78;;;9.48;61.60
41254;BME280;26987;59.928;30.306;2023-03-20T10:55:54;100761.00;;;9.35;61.87
41254;BME280;26987;59.928;30.306;2023-03-20T10:58:25;100763.31;;;9.45;61.80
41254;BME280;26987;59.928;30.306;2023-03-20T11:00:55;100750.13;;;9.43;61.77
41254;BME280;26987;59.928;30.306;2023-03-20T11:03:25;100748.47;;;9.42;61.80
41254;BME280;26987;59.928;30.306;2023-03-20T11:05:58;100731.19;;;9.38;62.15
41254;BME280;26987;59.928;30.306;2023-03-20T11:08:33;100744.13;;;9.41;62.27
41254;BME280;26987;59.928;30.306;2023-03-20T11:11:03;100741.50;;;9.48;62.00
41254;BME280;26987;59.928;30.306;2023-03-20T11:13:33;100727.69;;;9.44;62.41
41254;BME280;26987;59.928;30.306;2023-03-20T11:16:10;100720.34;;;9.60;62.19
41254;BME280;26987;59.928;30.306;2023-03-20T11:18:42;100724.50;;;9.69;61.92
41254;BME280;26987;59.928;30.306;2023-03-20T11:21:17;100735.25;;;9.83;61.64
41254;BME280;26987;59.928;30.306;2023-03-20T11:23:46;100700.41;;;9.69;61.36
41254;BME280;26987;59.928;30.306;2023-03-20T11:26:16;100714.84;;;9.89;61.47
41254;BME280;26987;59.928;30.306;2023-03-20T11:28:49;100690.94;;;9.87;61.46
41254;BME280;26987;59.928;30.306;2023-03-20T11:31:23;100715.31;;;10.06;61.45
41254;BME280;26987;59.928;30.306;2023-03-20T11:34:00;100707.50;;;10.18;60.86
41254;BME280;26987;59.928;30.306;2023-03-20T11:36:37;100700.06;;;10.20;60.91
41254;BME280;26987;59.928;30.306;2023-03-20T11:39:11;100699.03;;;10.21;60.76
41254;BME280;26987;59.928;30.306;2023-03-20T11:41:46;100693.03;;;10.26;60.67
41254;BME280;26987;59.928;30.306;2023-03-20T11:44:23;100699.88;;;10.28;60.59
41254;BME280;26987;59.928;30.306;2023-03-20T11:46:59;100684.41;;;10.24;60.79
41254;BME280;26987;59.928;30.306;2023-03-20T11:49:30;100692.22;;;10.32;60.65
41254;BME280;26987;59.928;30.306;2023-03-20T11:52:01;100687.50;;;10.34;60.72
41254;BME280;26987;59.928;30.306;2023-03-20T11:54:29;100689.75;;;10.30;59.96
41254;BME280;26987;59.928;30.306;2023-03-20T11:56:58;100690.38;;;10.32;60.35
41254;BME280;26987;59.928;30.306;2023-03-20T11:59:30;100680.91;;;10.30;60.86
41254;BME280;26987;59.928;30.306;2023-03-20T12:02:00;100672.44;;;10.13;60.54
41254;BME280;26987;59.928;30.306;2023-03-20T12:04:31;100662.34;;;10.01;61.06
41254;BME280;26987;59.928;30.306;2023-03-20T12:07:04;100654.91;;;9.90;61.80
41254;BME280;26987;59.928;30.306;2023-03-20T12:09:41;100673.06;;;10.01;61.46
41254;BME280;26987;59.928;30.306;2023-03-20T12:12:15;100668.50;;;10.02;61.82
41254;BME280;26987;59.928;30.306;2023-03-20T12:14:53;100667.09;;;10.06;61.37
41254;BME280;26987;59.928;30.306;2023-03-20T12:17:33;100648.72;;;9.96;61.43
41254;BME280;26987;59.928;30.306;2023-03-20T12:20:06;100663.78;;;10.04;61.58
41254;BME280;26987;59.928;30.306;2023-03-20T12:22:48;100659.66;;;10.08;62.12
41254;BME280;26987;59.928;30.306;2023-03-20T12:25:21;100655.34;;;10.07;62.01
41254;BME280;26987;59.928;30.306;2023-03-20T12:27:55;100662.56;;;10.13;62.12
41254;BME280;26987;59.928;30.306;2023-03-20T12:30:44;100636.78;;;10.12;62.01
41254;BME280;26987;59.928;30.306;2023-03-20T12:33:19;100650.41;;;10.24;61.55
41254;BME280;26987;59.928;30.306;2023-03-20T12:35:51;100648.13;;;10.21;61.33
41254;BME280;26987;59.928;30.306;2023-03-20T12:38:27;100608.13;;;9.99;61.93
41254;BME280;26987;59.928;30.306;2023-03-20T12:41:02;100636.78;;;10.19;61.29
41254;BME280;26987;59.928;30.306;2023-03-20T12:43:44;100638.25;;;10.15;61.68
41254;BME280;26987;59.928;30.306;2023-03-20T12:46:24;100636.56;;;10.14;61.89
41254;BME280;26987;59.928;30.306;2023-03-20T12:49:00;100633.09;;;10.13;61.44
41254;BME280;26987;59.928;30.306;2023-03-20T12:51:38;100630.81;;;10.17;61.62
41254;BME280;26987;59.928;30.306;2023-03-20T12:54:24;100609.38;;;10.24;61.25
41254;BME280;26987;59.928;30.306;2023-03-20T12:57:03;100622.13;;;10.35;60.60
41254;BME280;26987;59.928;30.306;2023-03-20T12:59:42;100616.34;;;10.38;60.30
41254;BME280;26987;59.928;30.306;2023-03-20T13:02:25;100610.78;;;10.40;60.27
41254;BME280;26987;59.928;30.306;2023-03-20T13:05:02;100610.19;;;10.38;60.20
41254;BME280;26987;59.928;30.306;2023-03-20T13:07:56;100608.94;;;10.47;60.61
41254;BME280;26987;59.928;30.306;2023-03-20T13:10:31;100604.81;;;10.44;60.30
41254;BME280;26987;59.928;30.306;2023-03-20T13:13:08;100600.69;;;10.49;59.79
41254;BME280;26987;59.928;30.306;2023-03-20T13:15:52;100590.78;;;10.56;60.35
41254;BME280;26987;59.928;30.306;2023-03-20T13:18:36;100582.13;;;10.54;59.95
41254;BME280;26987;59.928;30.306;2023-03-20T13:21:09;100591.19;;;10.53;59.58
41254;BME280;26987;59.928;30.306;2023-03-20T13:23:43;100584.81;;;10.54;59.71
41254;BME280;26987;59.928;30.306;2023-03-20T13:26:23;100573.69;;;10.57;60.19
41254;BME280;26987;59.928;30.306;2023-03-20T13:28:58;100576.78;;;10.54;60.18
41254;BME280;26987;59.928;30.306;2023-03-20T13:31:50;100576.31;;;10.64;59.84